sensor_id;sensor_type;location;lat;lon;timestamp;P1;durP1;ratioP1;P2;durP2;ratioP2
75798;SDS011;70933;44.692;37.776;2024-02-26T00:00:38;3.13;;;1.98;;
75798;SDS011;70933;44.692;37.776;2024-02-26T00:01:40;3.65;;;2.33;;
75798;SDS011;70933;44.692;37.776;2024-02-26T00:02:41;4.78;;;2.35;;
75798;SDS011;70933;44.692;37.776;2024-02-26T00:03:43;3.75;;;2.15;;
75798;SDS011;70933;44.692;37.776;2024-02-26T00:04:46;4.07;;;2.03;;
75798;SDS011;70933;44.692;37.776;2024-02-26T00:05:48;3.63;;;1.95;;
75798;SDS011;70933;44.692;37.776;2024-02-26T00:06:50;3.28;;;2.10;;
75798;SDS011;70933;44.692;37.776;2024-02-26T00:07:55;3.70;;;2.25;;
75798;SDS011;70933;44.692;37.776;2024-02-26T00:08:57;4.35;;;2.47;;
75798;SDS011;70933;44.692;37.776;2024-02-26T00:09:59;3.42;;;2.38;;
75798;SDS011;70933;44.692;37.776;2024-02-26T00:11:00;3.33;;;2.38;;
75798;SDS011;70933;44.692;37.776;2024-02-26T00:12:02;3.17;;;2.22;;
75798;SDS011;70933;44.692;37.776;2024-02-26T00:13:05;3.97;;;1.80;;
75798;SDS011;70933;44.692;37.776;2024-02-26T00:14:06;3.25;;;2.45;;
75798;SDS011;70933;44.692;37.776;2024-02-26T00:15:08;2.88;;;1.77;;
75798;SDS011;70933;44.692;37.776;2024-02-26T00:16:11;3.30;;;2.20;;
75798;SDS011;70933;44.692;37.776;2024-02-26T00:17:13;3.97;;;2.33;;
75798;SDS011;70933;44.692;37.776;2024-02-26T00:18:15;3.20;;;2.00;;
75798;SDS011;70933;44.692;37.776;2024-02-26T00:19:16;3.83;;;2.35;;
75798;SDS011;70933;44.692;37.776;2024-02-26T00:20:18;3.53;;;2.05;;
75798;SDS011;70933;44.692;37.776;2024-02-26T00:21:20;3.55;;;2.15;;
75798;SDS011;70933;44.692;37.776;2024-02-26T00:22:22;3.08;;;1.77;;
75798;SDS011;70933;44.692;37.776;2024-02-26T00:23:24;3.15;;;2.13;;
75798;SDS011;70933;44.692;37.776;2024-02-26T00:24:25;3.38;;;1.92;;
75798;SDS011;70933;44.692;37.776;2024-02-26T00:25:27;3.22;;;2.10;;
75798;SDS011;70933;44.692;37.776;2024-02-26T00:26:29;2.65;;;1.92;;
75798;SDS011;70933;44.692;37.776;2024-02-26T00:27:30;2.47;;;1.48;;
75798;SDS011;70933;44.692;37.776;2024-02-26T00:28:32;3.80;;;2.00;;
75798;SDS011;70933;44.692;37.776;2024-02-26T00:29:34;3.15;;;2.20;;
75798;SDS011;70933;44.692;37.776;2024-02-26T00:30:36;4.30;;;2.08;;
75798;SDS011;70933;44.692;37.776;2024-02-26T00:31:37;3.42;;;2.40;;
75798;SDS011;70933;44.692;37.776;2024-02-26T00:32:39;4.15;;;1.52;;
75798;SDS011;70933;44.692;37.776;2024-02-26T00:33:41;3.78;;;2.25;;
75798;SDS011;70933;44.692;37.776;2024-02-26T00:34:42;3.70;;;1.73;;
75798;SDS011;70933;44.692;37.776;2024-02-26T00:35:44;3.05;;;1.98;;
75798;SDS011;70933;44.692;37.776;2024-02-26T00:36:46;3.08;;;1.90;;
75798;SDS011;70933;44.692;37.776;2024-02-26T00:37:48;3.00;;;1.73;;
75798;SDS011;70933;44.692;37.776;2024-02-26T00:38:49;2.83;;;1.92;;
75798;SDS011;70933;44.692;37.776;2024-02-26T00:39:53;4.80;;;2.40;;
75798;SDS011;70933;44.692;37.776;2024-02-26T00:40:55;2.70;;;1.65;;
75798;SDS011;70933;44.692;37.776;2024-02-26T00:41:57;3.22;;;2.08;;
75798;SDS011;70933;44.692;37.776;2024-02-26T00:42:59;3.72;;;2.17;;
75798;SDS011;70933;44.692;37.776;2024-02-26T00:44:00;3.15;;;1.73;;
75798;SDS011;70933;44.692;37.776;2024-02-26T00:45:02;3.15;;;1.85;;
75798;SDS011;70933;44.692;37.776;2024-02-26T00:46:04;3.70;;;2.60;;
75798;SDS011;70933;44.692;37.776;2024-02-26T00:47:06;3.50;;;2.03;;
75798;SDS011;70933;44.692;37.776;2024-02-26T00:48:08;3.28;;;2.05;;
75798;SDS011;70933;44.692;37.776;2024-02-26T00:49:10;3.60;;;2.08;;
75798;SDS011;70933;44.692;37.776;2024-02-26T00:50:11;3.08;;;1.95;;
75798;SDS011;70933;44.692;37.776;2024-02-26T00:51:13;3.00;;;1.58;;
75798;SDS011;70933;44.692;37.776;2024-02-26T00:52:16;3.45;;;2.35;;
75798;SDS011;70933;44.692;37.776;2024-02-26T00:53:18;3.40;;;2.38;;
75798;SDS011;70933;44.692;37.776;2024-02-26T00:54:19;3.40;;;1.98;;
75798;SDS011;70933;44.692;37.776;2024-02-26T00:55:21;2.80;;;1.63;;
75798;SDS011;70933;44.692;37.776;2024-02-26T00:56:22;4.78;;;1.77;;
75798;SDS011;70933;44.692;37.776;2024-02-26T00:57:24;3.60;;;1.92;;
75798;SDS011;70933;44.692;37.776;2024-02-26T00:58:26;2.67;;;1.95;;
75798;SDS011;70933;44.692;37.776;2024-02-26T00:59:28;3.08;;;1.60;;
75798;SDS011;70933;44.692;37.776;2024-02-26T01:00:30;2.53;;;1.75;;
75798;SDS011;70933;44.692;37.776;2024-02-26T01:01:32;2.72;;;1.67;;
75798;SDS011;70933;44.692;37.776;2024-02-26T01:02:33;2.97;;;1.48;;
75798;SDS011;70933;44.692;37.776;2024-02-26T01:03:35;3.58;;;1.83;;
75798;SDS011;70933;44.692;37.776;2024-02-26T01:04:37;2.53;;;1.60;;
75798;SDS011;70933;44.692;37.776;2024-02-26T01:05:39;3.22;;;1.40;;
75798;SDS011;70933;44.692;37.776;2024-02-26T01:06:40;3.08;;;1.75;;
75798;SDS011;70933;44.692;37.776;2024-02-26T01:07:42;2.40;;;1.95;;
75798;SDS011;70933;44.692;37.776;2024-02-26T01:08:44;3.15;;;1.52;;
75798;SDS011;70933;44.692;37.776;2024-02-26T01:09:46;2.72;;;2.40;;
75798;SDS011;70933;44.692;37.776;2024-02-26T01:10:47;3.03;;;1.45;;
75798;SDS011;70933;44.692;37.776;2024-02-26T01:11:49;3.33;;;1.90;;
75798;SDS011;70933;44.692;37.776;2024-02-26T01:12:51;2.47;;;1.50;;
75798;SDS011;70933;44.692;37.776;2024-02-26T01:13:52;2.65;;;1.65;;
75798;SDS011;70933;44.692;37.776;2024-02-26T01:14:57;2.10;;;1.50;;
75798;SDS011;70933;44.692;37.776;2024-02-26T01:15:59;3.50;;;2.03;;
75798;SDS011;70933;44.692;37.776;2024-02-26T01:17:02;2.80;;;1.50;;
75798;SDS011;70933;44.692;37.776;2024-02-26T01:18:04;3.03;;;1.75;;
75798;SDS011;70933;44.692;37.776;2024-02-26T01:19:06;2.95;;;1.70;;
75798;SDS011;70933;44.692;37.776;2024-02-26T01:20:07;3.42;;;1.92;;
75798;SDS011;70933;44.692;37.776;2024-02-26T01:21:10;2.80;;;1.73;;
75798;SDS011;70933;44.692;37.776;2024-02-26T01:22:11;2.38;;;1.48;;
75798;SDS011;70933;44.692;37.776;2024-02-26T01:23:13;3.45;;;1.95;;
75798;SDS011;70933;44.692;37.776;2024-02-26T01:24:15;2.42;;;1.17;;
75798;SDS011;70933;44.692;37.776;2024-02-26T01:25:17;2.95;;;1.52;;
75798;SDS011;70933;44.692;37.776;2024-02-26T01:26:19;2.83;;;1.60;;
75798;SDS011;70933;44.692;37.776;2024-02-26T01:28:27;2.75;;;1.45;;
75798;SDS011;70933;44.692;37.776;2024-02-26T01:29:29;3.33;;;1.85;;
75798;SDS011;70933;44.692;37.776;2024-02-26T01:30:31;3.10;;;1.55;;
75798;SDS011;70933;44.692;37.776;2024-02-26T01:31:33;2.67;;;1.83;;
75798;SDS011;70933;44.692;37.776;2024-02-26T01:32:35;2.83;;;1.60;;
75798;SDS011;70933;44.692;37.776;2024-02-26T01:33:37;2.97;;;1.63;;
75798;SDS011;70933;44.692;37.776;2024-02-26T01:34:39;2.47;;;1.98;;
75798;SDS011;70933;44.692;37.776;2024-02-26T01:35:40;3.05;;;1.42;;
75798;SDS011;70933;44.692;37.776;2024-02-26T01:36:42;2.40;;;1.48;;
75798;SDS011;70933;44.692;37.776;2024-02-26T01:37:44;4.68;;;1.95;;
75798;SDS011;70933;44.692;37.776;2024-02-26T01:38:46;3.10;;;1.77;;
75798;SDS011;70933;44.692;37.776;2024-02-26T01:39:48;2.65;;;1.35;;
75798;SDS011;70933;44.692;37.776;2024-02-26T01:40:49;2.90;;;1.30;;
75798;SDS011;70933;44.692;37.776;2024-02-26T01:41:52;2.85;;;1.75;;
75798;SDS011;70933;44.692;37.776;2024-02-26T01:42:53;4.15;;;2.00;;
75798;SDS011;70933;44.692;37.776;2024-02-26T01:43:55;3.97;;;2.30;;
75798;SDS011;70933;44.692;37.776;2024-02-26T01:44:57;2.55;;;1.52;;
75798;SDS011;70933;44.692;37.776;2024-02-26T01:45:58;2.85;;;1.75;;
75798;SDS011;70933;44.692;37.776;2024-02-26T01:47:00;2.85;;;1.48;;
75798;SDS011;70933;44.692;37.776;2024-02-26T01:48:03;2.70;;;1.50;;
75798;SDS011;70933;44.692;37.776;2024-02-26T01:49:06;2.58;;;1.50;;
75798;SDS011;70933;44.692;37.776;2024-02-26T01:50:09;2.80;;;1.50;;
75798;SDS011;70933;44.692;37.776;2024-02-26T01:51:11;2.78;;;1.67;;
75798;SDS011;70933;44.692;37.776;2024-02-26T01:52:15;3.05;;;1.98;;
75798;SDS011;70933;44.692;37.776;2024-02-26T01:53:16;2.15;;;1.17;;
75798;SDS011;70933;44.692;37.776;2024-02-26T01:54:20;2.90;;;1.98;;
75798;SDS011;70933;44.692;37.776;2024-02-26T01:55:22;2.22;;;1.70;;
75798;SDS011;70933;44.692;37.776;2024-02-26T01:56:25;2.55;;;2.00;;
75798;SDS011;70933;44.692;37.776;2024-02-26T01:57:31;2.72;;;1.65;;
75798;SDS011;70933;44.692;37.776;2024-02-26T01:58:33;4.22;;;1.35;;
75798;SDS011;70933;44.692;37.776;2024-02-26T01:59:37;3.25;;;1.85;;
75798;SDS011;70933;44.692;37.776;2024-02-26T02:00:41;2.22;;;1.50;;
75798;SDS011;70933;44.692;37.776;2024-02-26T02:01:44;2.35;;;1.48;;
75798;SDS011;70933;44.692;37.776;2024-02-26T02:02:49;2.83;;;1.60;;
75798;SDS011;70933;44.692;37.776;2024-02-26T02:03:51;3.88;;;1.42;;
75798;SDS011;70933;44.692;37.776;2024-02-26T02:04:54;2.22;;;1.17;;
75798;SDS011;70933;44.692;37.776;2024-02-26T02:05:56;3.22;;;1.63;;
75798;SDS011;70933;44.692;37.776;2024-02-26T02:06:58;2.70;;;1.50;;
75798;SDS011;70933;44.692;37.776;2024-02-26T02:08:02;3.00;;;1.85;;
75798;SDS011;70933;44.692;37.776;2024-02-26T02:09:06;2.38;;;1.55;;
75798;SDS011;70933;44.692;37.776;2024-02-26T02:10:08;2.53;;;1.27;;
75798;SDS011;70933;44.692;37.776;2024-02-26T02:11:11;3.08;;;1.33;;
75798;SDS011;70933;44.692;37.776;2024-02-26T02:12:12;3.50;;;1.48;;
75798;SDS011;70933;44.692;37.776;2024-02-26T02:13:14;3.20;;;1.30;;
75798;SDS011;70933;44.692;37.776;2024-02-26T02:14:16;3.50;;;1.42;;
75798;SDS011;70933;44.692;37.776;2024-02-26T02:15:18;3.28;;;1.45;;
75798;SDS011;70933;44.692;37.776;2024-02-26T02:16:20;1.95;;;1.23;;
75798;SDS011;70933;44.692;37.776;2024-02-26T02:17:22;2.78;;;1.75;;
75798;SDS011;70933;44.692;37.776;2024-02-26T02:18:23;3.30;;;1.15;;
75798;SDS011;70933;44.692;37.776;2024-02-26T02:19:25;2.65;;;1.30;;
75798;SDS011;70933;44.692;37.776;2024-02-26T02:20:33;2.60;;;1.75;;
75798;SDS011;70933;44.692;37.776;2024-02-26T02:21:35;2.30;;;1.30;;
75798;SDS011;70933;44.692;37.776;2024-02-26T02:22:37;2.63;;;1.65;;
75798;SDS011;70933;44.692;37.776;2024-02-26T02:23:39;2.75;;;1.45;;
75798;SDS011;70933;44.692;37.776;2024-02-26T02:24:43;2.67;;;1.58;;
75798;SDS011;70933;44.692;37.776;2024-02-26T02:25:45;3.13;;;1.38;;
75798;SDS011;70933;44.692;37.776;2024-02-26T02:26:47;2.67;;;1.63;;
75798;SDS011;70933;44.692;37.776;2024-02-26T02:27:49;2.47;;;1.52;;
75798;SDS011;70933;44.692;37.776;2024-02-26T02:28:53;2.58;;;1.20;;
75798;SDS011;70933;44.692;37.776;2024-02-26T02:29:54;2.53;;;1.45;;
75798;SDS011;70933;44.692;37.776;2024-02-26T02:30:56;2.70;;;1.15;;
75798;SDS011;70933;44.692;37.776;2024-02-26T02:31:58;2.20;;;1.48;;
75798;SDS011;70933;44.692;37.776;2024-02-26T02:33:02;3.85;;;1.70;;
75798;SDS011;70933;44.692;37.776;2024-02-26T02:34:04;2.92;;;1.50;;
75798;SDS011;70933;44.692;37.776;2024-02-26T02:35:06;2.50;;;1.55;;
75798;SDS011;70933;44.692;37.776;2024-02-26T02:36:08;2.17;;;1.10;;
75798;SDS011;70933;44.692;37.776;2024-02-26T02:37:11;2.70;;;1.13;;
75798;SDS011;70933;44.692;37.776;2024-02-26T02:38:12;2.47;;;1.50;;
75798;SDS011;70933;44.692;37.776;2024-02-26T02:39:15;2.30;;;1.20;;
75798;SDS011;70933;44.692;37.776;2024-02-26T02:40:17;3.17;;;1.42;;
75798;SDS011;70933;44.692;37.776;2024-02-26T02:41:19;2.65;;;0.80;;
75798;SDS011;70933;44.692;37.776;2024-02-26T02:42:22;2.33;;;1.45;;
75798;SDS011;70933;44.692;37.776;2024-02-26T02:43:23;2.17;;;1.33;;
75798;SDS011;70933;44.692;37.776;2024-02-26T02:44:25;2.95;;;1.33;;
75798;SDS011;70933;44.692;37.776;2024-02-26T02:45:27;2.88;;;1.92;;
75798;SDS011;70933;44.692;37.776;2024-02-26T02:46:30;2.17;;;1.13;;
75798;SDS011;70933;44.692;37.776;2024-02-26T02:47:37;2.00;;;1.08;;
75798;SDS011;70933;44.692;37.776;2024-02-26T02:48:39;2.28;;;1.15;;
75798;SDS011;70933;44.692;37.776;2024-02-26T02:49:43;2.33;;;1.10;;
75798;SDS011;70933;44.692;37.776;2024-02-26T02:50:44;2.80;;;1.38;;
75798;SDS011;70933;44.692;37.776;2024-02-26T02:51:46;2.30;;;1.73;;
75798;SDS011;70933;44.692;37.776;2024-02-26T02:52:48;2.67;;;1.38;;
75798;SDS011;70933;44.692;37.776;2024-02-26T02:53:51;2.95;;;1.60;;
75798;SDS011;70933;44.692;37.776;2024-02-26T02:54:52;2.95;;;1.52;;
75798;SDS011;70933;44.692;37.776;2024-02-26T02:55:54;2.28;;;1.42;;
75798;SDS011;70933;44.692;37.776;2024-02-26T02:56:56;2.50;;;1.77;;
75798;SDS011;70933;44.692;37.776;2024-02-26T02:57:57;2.47;;;1.65;;
75798;SDS011;70933;44.692;37.776;2024-02-26T02:58:59;2.28;;;1.08;;
75798;SDS011;70933;44.692;37.776;2024-02-26T03:00:01;2.50;;;1.67;;
75798;SDS011;70933;44.692;37.776;2024-02-26T03:01:05;2.63;;;1.73;;
75798;SDS011;70933;44.692;37.776;2024-02-26T03:02:07;2.92;;;1.55;;
75798;SDS011;70933;44.692;37.776;2024-02-26T03:03:09;3.33;;;1.85;;
75798;SDS011;70933;44.692;37.776;2024-02-26T03:04:10;3.08;;;1.55;;
75798;SDS011;70933;44.692;37.776;2024-02-26T03:05:12;2.72;;;1.67;;
75798;SDS011;70933;44.692;37.776;2024-02-26T03:06:14;3.00;;;1.80;;
75798;SDS011;70933;44.692;37.776;2024-02-26T03:07:15;2.67;;;1.90;;
75798;SDS011;70933;44.692;37.776;2024-02-26T03:08:19;2.97;;;1.95;;
75798;SDS011;70933;44.692;37.776;2024-02-26T03:09:21;3.30;;;2.10;;
75798;SDS011;70933;44.692;37.776;2024-02-26T03:10:22;3.25;;;2.38;;
75798;SDS011;70933;44.692;37.776;2024-02-26T03:11:24;3.15;;;1.98;;
75798;SDS011;70933;44.692;37.776;2024-02-26T03:12:27;3.25;;;2.15;;
75798;SDS011;70933;44.692;37.776;2024-02-26T03:13:29;3.30;;;1.92;;
75798;SDS011;70933;44.692;37.776;2024-02-26T03:14:30;3.70;;;2.25;;
75798;SDS011;70933;44.692;37.776;2024-02-26T03:15:32;4.78;;;2.03;;
75798;SDS011;70933;44.692;37.776;2024-02-26T03:16:34;4.82;;;2.50;;
75798;SDS011;70933;44.692;37.776;2024-02-26T03:17:36;3.63;;;2.72;;
75798;SDS011;70933;44.692;37.776;2024-02-26T03:18:39;4.20;;;2.33;;
75798;SDS011;70933;44.692;37.776;2024-02-26T03:19:44;4.65;;;2.80;;
75798;SDS011;70933;44.692;37.776;2024-02-26T03:20:47;4.20;;;2.72;;
75798;SDS011;70933;44.692;37.776;2024-02-26T03:21:50;3.60;;;3.13;;
75798;SDS011;70933;44.692;37.776;2024-02-26T03:22:52;3.95;;;3.13;;
75798;SDS011;70933;44.692;37.776;2024-02-26T03:23:53;4.60;;;3.13;;
75798;SDS011;70933;44.692;37.776;2024-02-26T03:24:57;3.92;;;2.83;;
75798;SDS011;70933;44.692;37.776;2024-02-26T03:25:59;4.43;;;3.03;;
75798;SDS011;70933;44.692;37.776;2024-02-26T03:27:00;3.42;;;2.33;;
75798;SDS011;70933;44.692;37.776;2024-02-26T03:28:02;4.18;;;2.65;;
75798;SDS011;70933;44.692;37.776;2024-02-26T03:29:04;4.40;;;3.08;;
75798;SDS011;70933;44.692;37.776;2024-02-26T03:30:07;4.50;;;3.03;;
75798;SDS011;70933;44.692;37.776;2024-02-26T03:31:09;4.03;;;2.97;;
75798;SDS011;70933;44.692;37.776;2024-02-26T03:32:11;4.03;;;2.95;;
75798;SDS011;70933;44.692;37.776;2024-02-26T03:33:13;3.58;;;2.75;;
75798;SDS011;70933;44.692;37.776;2024-02-26T03:34:15;4.72;;;3.50;;
75798;SDS011;70933;44.692;37.776;2024-02-26T03:35:18;4.32;;;2.58;;
75798;SDS011;70933;44.692;37.776;2024-02-26T03:36:20;4.47;;;3.13;;
75798;SDS011;70933;44.692;37.776;2024-02-26T03:37:22;4.85;;;3.03;;
75798;SDS011;70933;44.692;37.776;2024-02-26T03:38:24;3.88;;;3.13;;
75798;SDS011;70933;44.692;37.776;2024-02-26T03:39:26;4.53;;;3.13;;
75798;SDS011;70933;44.692;37.776;2024-02-26T03:40:28;5.00;;;3.40;;
75798;SDS011;70933;44.692;37.776;2024-02-26T03:41:29;4.82;;;3.47;;
75798;SDS011;70933;44.692;37.776;2024-02-26T03:42:33;4.10;;;3.22;;
75798;SDS011;70933;44.692;37.776;2024-02-26T03:43:34;4.90;;;3.33;;
75798;SDS011;70933;44.692;37.776;2024-02-26T03:44:36;4.75;;;4.07;;
75798;SDS011;70933;44.692;37.776;2024-02-26T03:45:38;4.93;;;3.40;;
75798;SDS011;70933;44.692;37.776;2024-02-26T03:46:40;4.35;;;3.38;;
75798;SDS011;70933;44.692;37.776;2024-02-26T03:47:43;4.82;;;3.53;;
75798;SDS011;70933;44.692;37.776;2024-02-26T03:48:45;4.22;;;3.33;;
75798;SDS011;70933;44.692;37.776;2024-02-26T03:49:47;4.65;;;3.33;;
75798;SDS011;70933;44.692;37.776;2024-02-26T03:50:49;4.93;;;3.65;;
75798;SDS011;70933;44.692;37.776;2024-02-26T03:51:51;4.30;;;3.42;;
75798;SDS011;70933;44.692;37.776;2024-02-26T03:52:53;4.75;;;3.47;;
75798;SDS011;70933;44.692;37.776;2024-02-26T03:53:55;5.45;;;4.18;;
75798;SDS011;70933;44.692;37.776;2024-02-26T03:54:57;4.55;;;3.20;;
75798;SDS011;70933;44.692;37.776;2024-02-26T03:56:02;4.57;;;3.53;;
75798;SDS011;70933;44.692;37.776;2024-02-26T03:57:05;4.35;;;3.55;;
75798;SDS011;70933;44.692;37.776;2024-02-26T03:58:06;4.57;;;3.55;;
75798;SDS011;70933;44.692;37.776;2024-02-26T03:59:08;4.07;;;3.30;;
75798;SDS011;70933;44.692;37.776;2024-02-26T04:00:10;4.57;;;3.53;;
75798;SDS011;70933;44.692;37.776;2024-02-26T04:01:13;6.03;;;3.50;;
75798;SDS011;70933;44.692;37.776;2024-02-26T04:02:16;5.55;;;4.15;;
75798;SDS011;70933;44.692;37.776;2024-02-26T04:03:17;5.20;;;3.70;;
75798;SDS011;70933;44.692;37.776;2024-02-26T04:04:19;5.63;;;3.67;;
75798;SDS011;70933;44.692;37.776;2024-02-26T04:05:21;4.05;;;2.63;;
75798;SDS011;70933;44.692;37.776;2024-02-26T04:06:23;5.68;;;3.47;;
75798;SDS011;70933;44.692;37.776;2024-02-26T04:07:24;4.30;;;3.25;;
75798;SDS011;70933;44.692;37.776;2024-02-26T04:08:26;4.53;;;3.25;;
75798;SDS011;70933;44.692;37.776;2024-02-26T04:09:28;4.70;;;3.65;;
75798;SDS011;70933;44.692;37.776;2024-02-26T04:10:31;5.57;;;3.63;;
75798;SDS011;70933;44.692;37.776;2024-02-26T04:11:33;4.45;;;3.50;;
75798;SDS011;70933;44.692;37.776;2024-02-26T04:12:35;4.10;;;3.17;;
75798;SDS011;70933;44.692;37.776;2024-02-26T04:13:37;6.05;;;3.53;;
75798;SDS011;70933;44.692;37.776;2024-02-26T04:14:39;5.18;;;3.42;;
75798;SDS011;70933;44.692;37.776;2024-02-26T04:15:41;4.63;;;3.55;;
75798;SDS011;70933;44.692;37.776;2024-02-26T04:16:42;4.95;;;3.35;;
75798;SDS011;70933;44.692;37.776;2024-02-26T04:17:44;5.53;;;3.33;;
75798;SDS011;70933;44.692;37.776;2024-02-26T04:18:46;5.07;;;3.47;;
75798;SDS011;70933;44.692;37.776;2024-02-26T04:19:48;4.85;;;3.25;;
75798;SDS011;70933;44.692;37.776;2024-02-26T04:20:50;4.90;;;3.30;;
75798;SDS011;70933;44.692;37.776;2024-02-26T04:21:52;5.38;;;2.88;;
75798;SDS011;70933;44.692;37.776;2024-02-26T04:22:54;5.40;;;3.15;;
75798;SDS011;70933;44.692;37.776;2024-02-26T04:23:56;4.75;;;3.53;;
75798;SDS011;70933;44.692;37.776;2024-02-26T04:24:57;4.45;;;2.97;;
75798;SDS011;70933;44.692;37.776;2024-02-26T04:25:59;4.53;;;3.50;;
75798;SDS011;70933;44.692;37.776;2024-02-26T04:27:01;5.40;;;3.08;;
75798;SDS011;70933;44.692;37.776;2024-02-26T04:28:03;4.28;;;2.90;;
75798;SDS011;70933;44.692;37.776;2024-02-26T04:29:05;4.85;;;2.97;;
75798;SDS011;70933;44.692;37.776;2024-02-26T04:30:07;4.93;;;3.10;;
75798;SDS011;70933;44.692;37.776;2024-02-26T04:31:09;4.40;;;2.88;;
75798;SDS011;70933;44.692;37.776;2024-02-26T04:32:11;5.10;;;3.20;;
75798;SDS011;70933;44.692;37.776;2024-02-26T04:33:12;4.85;;;3.58;;
75798;SDS011;70933;44.692;37.776;2024-02-26T04:34:14;5.30;;;2.67;;
75798;SDS011;70933;44.692;37.776;2024-02-26T04:35:16;3.85;;;2.60;;
75798;SDS011;70933;44.692;37.776;2024-02-26T04:36:18;4.60;;;2.78;;
75798;SDS011;70933;44.692;37.776;2024-02-26T04:37:20;5.00;;;3.28;;
75798;SDS011;70933;44.692;37.776;2024-02-26T04:38:21;4.65;;;3.40;;
75798;SDS011;70933;44.692;37.776;2024-02-26T04:39:23;5.47;;;3.40;;
75798;SDS011;70933;44.692;37.776;2024-02-26T04:40:29;3.85;;;3.15;;
75798;SDS011;70933;44.692;37.776;2024-02-26T04:41:31;4.10;;;2.80;;
75798;SDS011;70933;44.692;37.776;2024-02-26T04:42:33;4.60;;;3.25;;
75798;SDS011;70933;44.692;37.776;2024-02-26T04:43:36;6.47;;;3.70;;
75798;SDS011;70933;44.692;37.776;2024-02-26T04:44:42;4.07;;;2.92;;
75798;SDS011;70933;44.692;37.776;2024-02-26T04:45:44;4.47;;;2.75;;
75798;SDS011;70933;44.692;37.776;2024-02-26T04:46:46;4.00;;;2.85;;
75798;SDS011;70933;44.692;37.776;2024-02-26T04:47:47;4.32;;;2.85;;
75798;SDS011;70933;44.692;37.776;2024-02-26T04:48:49;6.07;;;2.67;;
75798;SDS011;70933;44.692;37.776;2024-02-26T04:49:51;4.13;;;2.78;;
75798;SDS011;70933;44.692;37.776;2024-02-26T04:50:53;4.18;;;2.50;;
75798;SDS011;70933;44.692;37.776;2024-02-26T04:51:55;4.35;;;2.03;;
75798;SDS011;70933;44.692;37.776;2024-02-26T04:52:57;5.00;;;3.13;;
75798;SDS011;70933;44.692;37.776;2024-02-26T04:53:59;4.00;;;2.53;;
75798;SDS011;70933;44.692;37.776;2024-02-26T04:55:00;4.25;;;2.47;;
75798;SDS011;70933;44.692;37.776;2024-02-26T04:56:02;3.95;;;2.33;;
75798;SDS011;70933;44.692;37.776;2024-02-26T04:57:04;3.85;;;2.25;;
75798;SDS011;70933;44.692;37.776;2024-02-26T04:58:06;11.23;;;2.30;;
75798;SDS011;70933;44.692;37.776;2024-02-26T04:59:07;5.10;;;2.70;;
75798;SDS011;70933;44.692;37.776;2024-02-26T05:00:09;5.05;;;2.40;;
75798;SDS011;70933;44.692;37.776;2024-02-26T05:01:12;3.30;;;2.22;;
75798;SDS011;70933;44.692;37.776;2024-02-26T05:02:14;4.28;;;2.45;;
75798;SDS011;70933;44.692;37.776;2024-02-26T05:03:16;5.10;;;2.28;;
75798;SDS011;70933;44.692;37.776;2024-02-26T05:04:18;3.90;;;2.72;;
75798;SDS011;70933;44.692;37.776;2024-02-26T05:05:20;5.10;;;2.95;;
75798;SDS011;70933;44.692;37.776;2024-02-26T05:06:21;5.20;;;2.55;;
75798;SDS011;70933;44.692;37.776;2024-02-26T05:07:23;5.25;;;2.60;;
75798;SDS011;70933;44.692;37.776;2024-02-26T05:08:25;4.45;;;2.40;;
75798;SDS011;70933;44.692;37.776;2024-02-26T05:09:27;4.60;;;2.78;;
75798;SDS011;70933;44.692;37.776;2024-02-26T05:10:28;3.97;;;2.58;;
75798;SDS011;70933;44.692;37.776;2024-02-26T05:11:30;5.00;;;2.30;;
75798;SDS011;70933;44.692;37.776;2024-02-26T05:12:32;6.32;;;2.90;;
75798;SDS011;70933;44.692;37.776;2024-02-26T05:13:36;4.68;;;2.17;;
75798;SDS011;70933;44.692;37.776;2024-02-26T05:14:38;4.65;;;2.33;;
75798;SDS011;70933;44.692;37.776;2024-02-26T05:15:40;5.05;;;3.05;;
75798;SDS011;70933;44.692;37.776;2024-02-26T05:16:42;5.60;;;2.42;;
75798;SDS011;70933;44.692;37.776;2024-02-26T05:17:44;6.28;;;2.63;;
75798;SDS011;70933;44.692;37.776;2024-02-26T05:18:47;5.88;;;2.22;;
75798;SDS011;70933;44.692;37.776;2024-02-26T05:19:49;5.45;;;1.88;;
75798;SDS011;70933;44.692;37.776;2024-02-26T05:20:50;4.38;;;2.03;;
75798;SDS011;70933;44.692;37.776;2024-02-26T05:21:52;5.55;;;2.17;;
75798;SDS011;70933;44.692;37.776;2024-02-26T05:22:54;4.68;;;1.50;;
75798;SDS011;70933;44.692;37.776;2024-02-26T05:23:57;3.83;;;2.10;;
75798;SDS011;70933;44.692;37.776;2024-02-26T05:24:59;5.13;;;1.77;;
75798;SDS011;70933;44.692;37.776;2024-02-26T05:26:01;5.15;;;2.25;;
75798;SDS011;70933;44.692;37.776;2024-02-26T05:27:02;3.85;;;1.90;;
75798;SDS011;70933;44.692;37.776;2024-02-26T05:28:05;4.25;;;2.25;;
75798;SDS011;70933;44.692;37.776;2024-02-26T05:29:06;4.47;;;2.30;;
75798;SDS011;70933;44.692;37.776;2024-02-26T05:30:09;4.07;;;1.98;;
75798;SDS011;70933;44.692;37.776;2024-02-26T05:31:14;4.88;;;2.20;;
75798;SDS011;70933;44.692;37.776;2024-02-26T05:32:16;2.92;;;1.80;;
75798;SDS011;70933;44.692;37.776;2024-02-26T05:33:20;4.60;;;2.53;;
75798;SDS011;70933;44.692;37.776;2024-02-26T05:34:22;4.50;;;2.65;;
75798;SDS011;70933;44.692;37.776;2024-02-26T05:35:24;5.57;;;2.13;;
75798;SDS011;70933;44.692;37.776;2024-02-26T05:36:27;4.82;;;1.80;;
75798;SDS011;70933;44.692;37.776;2024-02-26T05:37:34;3.92;;;2.05;;
75798;SDS011;70933;44.692;37.776;2024-02-26T05:38:35;5.03;;;2.40;;
75798;SDS011;70933;44.692;37.776;2024-02-26T05:39:37;3.97;;;2.55;;
75798;SDS011;70933;44.692;37.776;2024-02-26T05:40:40;3.72;;;2.15;;
75798;SDS011;70933;44.692;37.776;2024-02-26T05:41:42;4.50;;;2.20;;
75798;SDS011;70933;44.692;37.776;2024-02-26T05:42:44;3.95;;;2.50;;
75798;SDS011;70933;44.692;37.776;2024-02-26T05:43:46;5.93;;;2.35;;
75798;SDS011;70933;44.692;37.776;2024-02-26T05:44:48;5.15;;;2.15;;
75798;SDS011;70933;44.692;37.776;2024-02-26T05:45:49;2.95;;;1.85;;
75798;SDS011;70933;44.692;37.776;2024-02-26T05:46:51;4.63;;;2.03;;
75798;SDS011;70933;44.692;37.776;2024-02-26T05:47:53;4.18;;;2.28;;
75798;SDS011;70933;44.692;37.776;2024-02-26T05:48:54;4.20;;;1.98;;
75798;SDS011;70933;44.692;37.776;2024-02-26T05:49:56;5.03;;;2.38;;
75798;SDS011;70933;44.692;37.776;2024-02-26T05:51:00;5.35;;;2.35;;
75798;SDS011;70933;44.692;37.776;2024-02-26T05:52:02;3.67;;;2.20;;
75798;SDS011;70933;44.692;37.776;2024-02-26T05:53:04;4.78;;;1.73;;
75798;SDS011;70933;44.692;37.776;2024-02-26T05:54:05;4.72;;;1.90;;
75798;SDS011;70933;44.692;37.776;2024-02-26T05:55:09;4.05;;;1.67;;
75798;SDS011;70933;44.692;37.776;2024-02-26T05:56:11;3.65;;;2.08;;
75798;SDS011;70933;44.692;37.776;2024-02-26T05:57:13;3.72;;;2.30;;
75798;SDS011;70933;44.692;37.776;2024-02-26T05:58:14;3.53;;;1.95;;
75798;SDS011;70933;44.692;37.776;2024-02-26T05:59:16;5.13;;;2.08;;
75798;SDS011;70933;44.692;37.776;2024-02-26T06:00:18;4.03;;;1.92;;
75798;SDS011;70933;44.692;37.776;2024-02-26T06:01:20;4.60;;;2.30;;
75798;SDS011;70933;44.692;37.776;2024-02-26T06:02:22;6.07;;;2.38;;
75798;SDS011;70933;44.692;37.776;2024-02-26T06:03:24;4.15;;;2.15;;
75798;SDS011;70933;44.692;37.776;2024-02-26T06:04:26;3.92;;;2.13;;
75798;SDS011;70933;44.692;37.776;2024-02-26T06:05:28;4.55;;;2.22;;
75798;SDS011;70933;44.692;37.776;2024-02-26T06:06:30;4.72;;;2.17;;
75798;SDS011;70933;44.692;37.776;2024-02-26T06:07:33;4.78;;;2.15;;
75798;SDS011;70933;44.692;37.776;2024-02-26T06:08:34;5.90;;;3.05;;
75798;SDS011;70933;44.692;37.776;2024-02-26T06:09:36;3.50;;;1.92;;